Time;durP1;ratioP1;P1;durP2;ratioP2;P2;SDS_P1;SDS_P2;PMS_P1;PMS_P2;Temp;Humidity;BMP_temperature;BMP_pressure;BME280_temperature;BME280_humidity;BME280_pressure;Samples;Min_cycle;Max_cycle;Signal;HPM_P1;HPM_P2
2023/12/12 00:01:07;;;;;;;1.90;1.20;;;;;;;;;;5050911;28;20118;-27
2023/12/12 00:03:35;;;;;;;1.70;1.02;;;;;;;;;;5050882;28;20060;-23
2023/12/12 00:06:02;;;;;;;2.47;1.25;;;19.80;58.70;;;;;;5050955;28;20495;-25
2023/12/12 00:08:30;;;;;;;2.30;1.00;;;19.30;68.40;;;;;;5051073;28;20045;-25
2023/12/12 00:10:57;;;;;;;2.20;1.00;;;;;;;;;;5053187;28;20102;-24
2023/12/12 00:13:24;;;;;;;2.28;1.10;;;19.30;60.50;;;;;;5054518;28;20107;-25
2023/12/12 00:15:51;;;;;;;2.13;1.05;;;19.60;68.90;;;;;;5054395;28;20110;-24
2023/12/12 00:18:18;;;;;;;2.40;1.20;;;;;;;;;;5054761;28;20409;-27
2023/12/12 00:20:45;;;;;;;2.25;1.00;;;;;;;;;;5054606;28;20434;-24
2023/12/12 00:23:12;;;;;;;1.50;1.00;;;;;;;;;;5054356;28;20072;-27
2023/12/12 00:25:40;;;;;;;1.75;1.02;;;20.40;69.50;;;;;;5054500;28;20057;-25
2023/12/12 00:28:07;;;;;;;1.50;0.95;;;20.30;69.00;;;;;;5054448;28;20056;-24
2023/12/12 00:30:34;;;;;;;1.77;1.10;;;;;;;;;;5053794;28;20049;-27
2023/12/12 00:33:01;;;;;;;4.20;1.10;;;18.00;67.90;;;;;;5054422;28;20110;-23
2023/12/12 00:35:28;;;;;;;2.10;1.00;;;;;;;;;;5054137;28;20556;-29
2023/12/12 00:37:55;;;;;;;1.70;1.00;;;20.30;53.40;;;;;;5070736;28;20440;-24
2023/12/12 00:40:22;;;;;;;2.97;1.10;;;18.90;68.70;;;;;;5065314;28;20690;-25
2023/12/12 00:42:50;;;;;;;1.30;0.90;;;19.00;63.20;;;;;;5054292;28;20044;-25
2023/12/12 00:45:17;;;;;;;2.10;1.00;;;19.50;62.70;;;;;;5054348;28;20057;-25
2023/12/12 00:47:43;;;;;;;1.67;1.08;;;19.50;69.20;;;;;;5054205;28;20055;-25
2023/12/12 00:50:10;;;;;;;1.55;1.00;;;19.20;69.10;;;;;;5070317;28;20044;-25
2023/12/12 00:52:37;;;;;;;1.50;0.95;;;19.50;64.90;;;;;;5073905;28;20056;-25
2023/12/12 00:55:05;;;;;;;1.40;0.95;;;18.30;68.70;;;;;;5073869;28;20494;-25
2023/12/12 00:57:32;;;;;;;2.45;1.05;;;18.80;68.50;;;;;;5072966;28;20052;-25
2023/12/12 01:00:00;;;;;;;1.35;0.93;;;19.60;69.50;;;;;;5073276;28;20687;-25
2023/12/12 01:02:26;;;;;;;2.25;1.10;;;19.50;69.10;;;;;;5074186;28;20049;-26
2023/12/12 01:04:53;;;;;;;2.22;1.08;;;;;;;;;;5073671;28;20090;-25
2023/12/12 01:07:20;;;;;;;1.55;1.13;;;18.70;54.60;;;;;;5073782;28;20056;-25
2023/12/12 01:09:47;;;;;;;2.22;1.10;;;19.30;52.90;;;;;;5073006;28;20056;-25
2023/12/12 01:12:14;;;;;;;1.33;0.95;;;;;;;;;;5073661;28;20097;-25
2023/12/12 01:14:41;;;;;;;1.90;0.90;;;19.20;69.30;;;;;;5073454;28;20485;-25
2023/12/12 01:17:09;;;;;;;2.20;0.95;;;19.00;63.00;;;;;;5073555;28;20044;-25
2023/12/12 01:19:36;;;;;;;1.10;0.90;;;18.90;63.40;;;;;;5072889;28;20048;-25
2023/12/12 01:22:03;;;;;;;1.35;0.88;;;20.10;69.90;;;;;;5071996;28;20047;-26
2023/12/12 01:24:30;;;;;;;2.95;1.10;;;18.00;51.30;;;;;;5073294;28;20052;-26
2023/12/12 01:26:57;;;;;;;1.77;0.90;;;18.70;69.20;;;;;;5073569;28;20107;-26
2023/12/12 01:29:24;;;;;;;1.45;0.90;;;;;;;;;;5073147;28;20447;-28
2023/12/12 01:31:51;;;;;;;1.70;0.90;;;18.60;64.00;;;;;;5072961;28;20452;-24
2023/12/12 01:34:19;;;;;;;1.20;0.90;;;19.00;48.70;;;;;;5072973;28;20513;-26
2023/12/12 01:36:46;;;;;;;2.60;1.08;;;;;;;;;;5066080;28;20059;-27
2023/12/12 01:39:13;;;;;;;1.80;1.00;;;19.20;69.30;;;;;;5054720;28;20049;-25
2023/12/12 01:41:40;;;;;;;1.58;1.00;;;;;;;;;;5052934;28;20114;-27
2023/12/12 01:44:07;;;;;;;2.22;1.00;;;18.40;48.90;;;;;;5053058;28;20053;-26
2023/12/12 01:46:35;;;;;;;1.95;1.00;;;;;;;;;;5052847;28;20048;-26
2023/12/12 01:49:02;;;;;;;1.33;0.85;;;19.50;69.80;;;;;;5052996;28;20045;-25
2023/12/12 01:51:30;;;;;;;4.53;1.08;;;19.20;58.30;;;;;;5052558;28;20094;-26
2023/12/12 01:53:57;;;;;;;2.10;0.90;;;;;;;;;;5053143;28;20199;-25
2023/12/12 01:56:24;;;;;;;1.42;0.90;;;18.60;62.90;;;;;;5052774;28;20053;-24
2023/12/12 01:58:51;;;;;;;1.27;0.80;;;18.60;60.20;;;;;;5052624;28;20084;-25
2023/12/12 02:01:18;;;;;;;1.27;0.90;;;18.70;69.20;;;;;;5052345;28;20053;-24
2023/12/12 02:03:45;;;;;;;1.77;0.85;;;18.80;69.50;;;;;;5052664;28;20413;-25
2023/12/12 02:06:13;;;;;;;1.75;1.00;;;;;;;;;;5052620;28;20075;-25
2023/12/12 02:08:41;;;;;;;1.73;0.90;;;18.80;48.80;;;;;;5054941;28;20364;-25
2023/12/12 02:11:08;;;;;;;1.13;0.98;;;19.10;69.80;;;;;;5071982;28;20098;-25
2023/12/12 02:13:35;;;;;;;1.60;0.90;;;;;;;;;;5072594;28;20045;-25
2023/12/12 02:16:02;;;;;;;2.22;1.20;;;18.00;59.00;;;;;;5072462;28;20090;-24
2023/12/12 02:18:29;;;;;;;1.08;0.90;;;;;;;;;;5071731;28;20489;-27
2023/12/12 02:20:59;;;;;;;1.73;0.98;;;19.10;54.80;;;;;;5071999;28;20464;-25
2023/12/12 02:23:28;;;;;;;2.08;1.20;;;18.60;69.10;;;;;;5072583;28;20045;-24
2023/12/12 02:25:55;;;;;;;1.73;1.02;;;18.30;69.20;;;;;;5072271;28;20118;-25
2023/12/12 02:28:22;;;;;;;2.80;0.90;;;19.10;57.40;;;;;;5071804;28;20505;-26
2023/12/12 02:30:49;;;;;;;2.90;1.10;;;18.80;69.10;;;;;;5071994;28;20410;-25
2023/12/12 02:33:16;;;;;;;1.10;1.00;;;;;;;;;;5063142;28;20052;-25
2023/12/12 02:35:43;;;;;;;1.60;1.00;;;18.70;69.10;;;;;;5051983;28;20041;-25
2023/12/12 02:38:10;;;;;;;1.85;0.95;;;;;;;;;;5070685;28;20048;-26
2023/12/12 02:40:38;;;;;;;1.70;0.90;;;19.20;69.30;;;;;;5070331;28;20109;-24
2023/12/12 02:43:05;;;;;;;1.13;0.77;;;19.50;69.80;;;;;;5071926;28;20045;-24
2023/12/12 02:45:32;;;;;;;2.53;0.90;;;;;;;;;;5071891;28;20053;-26
2023/12/12 02:47:59;;;;;;;2.92;0.90;;;18.80;69.00;;;;;;5071928;28;20082;-25
2023/12/12 02:50:26;;;;;;;1.02;0.70;;;19.00;55.00;;;;;;5054308;28;20060;-25
2023/12/12 02:52:53;;;;;;;1.60;0.88;;;19.30;67.30;;;;;;5051655;28;20053;-25
2023/12/12 02:55:19;;;;;;;1.58;0.98;;;19.90;69.70;;;;;;5051866;28;20049;-25
2023/12/12 02:57:48;;;;;;;2.42;1.13;;;19.00;48.60;;;;;;5051559;28;20049;-26
2023/12/12 03:00:15;;;;;;;2.10;0.90;;;19.00;48.60;;;;;;5051361;28;20052;-25
2023/12/12 03:02:42;;;;;;;1.33;0.90;;;19.40;63.40;;;;;;5051866;28;20472;-25
2023/12/12 03:05:09;;;;;;;1.77;1.05;;;18.80;59.00;;;;;;5051426;28;20494;-25
2023/12/12 03:07:37;;;;;;;2.70;1.15;;;;;;;;;;5052922;28;20060;-29
2023/12/12 03:10:04;;;;;;;1.60;1.02;;;19.10;57.40;;;;;;5051414;28;20053;-31
2023/12/12 03:12:31;;;;;;;1.15;1.00;;;18.70;49.40;;;;;;5051591;28;20195;-27
2023/12/12 03:14:59;;;;;;;2.15;1.10;;;18.80;69.00;;;;;;5051146;28;20441;-31
2023/12/12 03:17:26;;;;;;;2.17;1.20;;;18.30;69.30;;;;;;5051685;28;20122;-29
2023/12/12 03:19:53;;;;;;;1.48;1.00;;;;;;;;;;5051345;28;20476;-27
2023/12/12 03:22:20;;;;;;;2.35;1.20;;;19.10;69.60;;;;;;5051321;28;20045;-29
2023/12/12 03:24:47;;;;;;;1.73;1.02;;;18.40;69.30;;;;;;5051277;28;20318;-30
2023/12/12 03:27:14;;;;;;;1.85;1.02;;;19.30;64.60;;;;;;5051296;28;20552;-31
2023/12/12 03:29:41;;;;;;;1.75;1.00;;;19.30;69.70;;;;;;5061128;28;20056;-30
2023/12/12 03:32:09;;;;;;;1.20;1.00;;;18.40;50.00;;;;;;5071257;28;20048;-29
2023/12/12 03:34:36;;;;;;;2.28;1.13;;;18.10;56.20;;;;;;5071606;28;20102;-27
2023/12/12 03:37:03;;;;;;;1.13;0.85;;;;;;;;;;5064914;28;20060;-30
2023/12/12 03:39:30;;;;;;;1.45;0.90;;;19.50;51.90;;;;;;5059570;28;20040;-31
2023/12/12 03:41:56;;;;;;;1.45;1.10;;;19.10;69.50;;;;;;5071096;28;20090;-30
2023/12/12 03:44:24;;;;;;;1.27;0.90;;;;;;;;;;5071344;28;20056;-31
2023/12/12 03:46:50;;;;;;;1.95;1.10;;;18.20;68.70;;;;;;5071594;28;20049;-23
2023/12/12 03:49:19;;;;;;;1.95;1.08;;;19.30;55.70;;;;;;5055247;28;20110;-23
2023/12/12 03:51:45;;;;;;;1.85;1.17;;;19.40;69.60;;;;;;5054924;28;20114;-23
2023/12/12 03:54:12;;;;;;;1.85;1.35;;;19.20;49.50;;;;;;5055087;28;20057;-25
2023/12/12 03:56:39;;;;;;;1.52;1.10;;;18.60;68.80;;;;;;5054888;28;20912;-26
2023/12/12 03:59:06;;;;;;;1.60;0.98;;;;;;;;;;5054964;28;20041;-27
2023/12/12 04:01:33;;;;;;;1.50;1.08;;;;;;;;;;5054409;28;20045;-23
2023/12/12 04:04:00;;;;;;;1.90;1.00;;;19.30;48.70;;;;;;5055016;28;20049;-29
2023/12/12 04:06:29;;;;;;;1.88;1.00;;;18.50;65.70;;;;;;5054681;28;20061;-25
2023/12/12 04:08:55;;;;;;;1.77;0.90;;;19.80;66.40;;;;;;5055035;28;20049;-24
2023/12/12 04:11:22;;;;;;;1.08;0.93;;;19.10;58.80;;;;;;5054681;28;20056;-24
2023/12/12 04:13:49;;;;;;;1.30;1.00;;;18.70;68.60;;;;;;5054464;28;20057;-26
2023/12/12 04:16:16;;;;;;;1.58;1.15;;;19.70;69.30;;;;;;5054609;28;20045;-24
2023/12/12 04:18:44;;;;;;;1.60;1.15;;;;;;;;;;5054401;28;20048;-26
2023/12/12 04:21:10;;;;;;;2.40;0.90;;;19.10;68.80;;;;;;5054644;28;20441;-24
2023/12/12 04:23:42;;;;;;;1.52;1.10;;;19.00;63.40;;;;;;5054612;28;20560;-26
2023/12/12 04:26:10;;;;;;;1.10;0.90;;;;;;;;;;5054410;28;20059;-29
2023/12/12 04:28:37;;;;;;;1.35;0.90;;;19.80;51.30;;;;;;5054103;28;20045;-26
2023/12/12 04:31:04;;;;;;;1.70;0.98;;;19.30;48.20;;;;;;5054152;28;20492;-24
2023/12/12 04:33:31;;;;;;;1.33;1.00;;;;;;;;;;5054586;28;20074;-26
2023/12/12 04:35:59;;;;;;;1.50;1.02;;;19.00;52.20;;;;;;5053507;28;20103;-29
2023/12/12 04:38:26;;;;;;;2.10;1.02;;;19.40;60.30;;;;;;5054235;28;20053;-32
2023/12/12 04:40:54;;;;;;;1.30;0.80;;;19.50;68.90;;;;;;5052043;28;20456;-29
2023/12/12 04:43:22;;;;;;;1.55;0.90;;;19.70;68.80;;;;;;5054312;28;20490;-31
2023/12/12 04:45:49;;;;;;;2.00;1.00;;;19.10;68.20;;;;;;5054150;28;20056;-31
2023/12/12 04:48:17;;;;;;;1.35;0.85;;;;;;;;;;5053925;28;20048;-27
2023/12/12 04:50:44;;;;;;;1.60;0.90;;;;;;;;;;5053585;28;20411;-26
2023/12/12 04:53:11;;;;;;;2.50;1.10;;;;;;;;;;5054128;28;20486;-30
2023/12/12 04:55:39;;;;;;;1.23;0.98;;;;;;;;;;5053884;28;20049;-28
2023/12/12 04:58:07;;;;;;;1.23;0.98;;;19.30;68.10;;;;;;5053696;28;20052;-29
2023/12/12 05:00:33;;;;;;;1.33;1.10;;;19.40;68.00;;;;;;5053606;28;20049;-31
2023/12/12 05:03:00;;;;;;;1.40;1.05;;;19.60;56.60;;;;;;5053384;28;20103;-32
2023/12/12 05:05:27;;;;;;;2.00;1.10;;;20.00;68.70;;;;;;5053825;28;20049;-29
2023/12/12 05:07:54;;;;;;;2.80;1.00;;;19.50;68.20;;;;;;5053661;28;20052;-29
2023/12/12 05:10:21;;;;;;;2.53;1.10;;;19.60;50.80;;;;;;5053390;28;20091;-29
2023/12/12 05:12:47;;;;;;;1.30;1.20;;;18.60;67.90;;;;;;5053546;28;20057;-30
2023/12/12 05:15:16;;;;;;;1.45;1.10;;;19.70;47.80;;;;;;5053457;28;20565;-29
2023/12/12 05:17:43;;;;;;;1.67;1.10;;;;;;;;;;5053271;28;20494;-30
2023/12/12 05:20:12;;;;;;;2.00;1.10;;;19.40;56.60;;;;;;5053277;28;20505;-30
2023/12/12 05:22:39;;;;;;;2.05;1.30;;;20.40;49.00;;;;;;5053443;28;20057;-29
2023/12/12 05:25:07;;;;;;;2.05;1.20;;;19.40;67.80;;;;;;5053553;28;20456;-29
2023/12/12 05:27:34;;;;;;;1.67;1.10;;;20.10;68.30;;;;;;5053024;28;20372;-31
2023/12/12 05:30:01;;;;;;;1.10;1.00;;;19.50;48.10;;;;;;5053131;28;20115;-27
2023/12/12 05:32:29;;;;;;;1.40;1.00;;;19.80;67.90;;;;;;5052843;28;20498;-28
2023/12/12 05:34:56;;;;;;;1.30;1.10;;;;;;;;;;5053490;28;20092;-28
2023/12/12 05:37:23;;;;;;;1.13;1.00;;;19.50;54.20;;;;;;5059822;28;20124;-29
2023/12/12 05:39:50;;;;;;;1.45;1.17;;;19.40;67.80;;;;;;5064321;28;20118;-29
2023/12/12 05:42:17;;;;;;;1.60;1.08;;;;;;;;;;5072915;28;20088;-27
2023/12/12 05:44:44;;;;;;;1.95;1.27;;;18.70;67.40;;;;;;5072747;28;20094;-31
2023/12/12 05:47:11;;;;;;;2.33;1.20;;;;;;;;;;5072311;28;20052;-30
2023/12/12 05:49:41;;;;;;;2.33;1.35;;;19.50;52.40;;;;;;5053455;28;20410;-24
2023/12/12 05:52:08;;;;;;;2.55;1.30;;;20.20;50.60;;;;;;5052867;28;20110;-25
2023/12/12 05:54:35;;;;;;;2.30;1.33;;;19.50;67.70;;;;;;5052762;28;20059;-24
2023/12/12 05:57:02;;;;;;;1.30;1.10;;;;;;;;;;5052659;28;20053;-26
2023/12/12 05:59:29;;;;;;;1.33;1.10;;;18.60;61.60;;;;;;5052622;28;20045;-25
2023/12/12 06:01:55;;;;;;;2.20;1.63;;;20.00;68.20;;;;;;5052478;28;20049;-24
2023/12/12 06:04:22;;;;;;;1.13;1.00;;;20.70;59.20;;;;;;5052904;28;20472;-25
2023/12/12 06:06:51;;;;;;;2.50;1.33;;;20.60;68.60;;;;;;5052493;28;20494;-23
2023/12/12 06:09:18;;;;;;;2.35;1.27;;;;;;;;;;5051915;28;20045;-26
2023/12/12 06:11:45;;;;;;;1.95;1.20;;;19.90;68.10;;;;;;5052090;28;20060;-24
2023/12/12 06:14:12;;;;;;;1.42;1.20;;;19.60;68.00;;;;;;5052697;28;20184;-24
2023/12/12 06:16:39;;;;;;;1.85;1.40;;;19.80;67.80;;;;;;5052164;28;20064;-24
2023/12/12 06:19:06;;;;;;;1.60;1.10;;;19.40;68.10;;;;;;5067551;28;20048;-24
2023/12/12 06:21:33;;;;;;;2.10;1.30;;;19.40;48.50;;;;;;5072074;28;20094;-26
2023/12/12 06:24:02;;;;;;;2.60;1.58;;;19.60;68.10;;;;;;5071900;28;20567;-24
2023/12/12 06:26:29;;;;;;;2.20;1.35;;;;;;;;;;5072150;28;20044;-24
2023/12/12 06:28:56;;;;;;;1.67;1.20;;;20.20;68.30;;;;;;5055244;28;20485;-24
2023/12/12 06:31:23;;;;;;;1.70;1.20;;;18.90;53.40;;;;;;5052048;28;20064;-24
2023/12/12 06:33:50;;;;;;;1.98;1.27;;;19.60;68.10;;;;;;5052195;28;20128;-30
2023/12/12 06:36:17;;;;;;;1.75;1.20;;;19.60;58.20;;;;;;5054930;28;20386;-30
2023/12/12 06:38:44;;;;;;;1.50;1.20;;;20.40;51.60;;;;;;5058972;28;20084;-30
2023/12/12 06:41:12;;;;;;;1.90;1.20;;;19.90;47.50;;;;;;5071694;28;20102;-27
2023/12/12 06:43:39;;;;;;;1.50;1.10;;;;;;;;;;5072448;28;20487;-25
2023/12/12 06:46:07;;;;;;;1.48;1.20;;;20.10;67.90;;;;;;5072061;28;20113;-29
2023/12/12 06:48:34;;;;;;;1.80;1.20;;;19.60;67.60;;;;;;5058478;28;20041;-32
2023/12/12 06:51:02;;;;;;;1.55;1.05;;;;;;;;;;5051460;28;20052;-26
2023/12/12 06:53:29;;;;;;;1.42;1.10;;;20.20;68.30;;;;;;5051681;28;20049;-27
2023/12/12 06:55:56;;;;;;;1.17;1.02;;;19.70;67.70;;;;;;5051786;28;20132;-27
2023/12/12 06:58:24;;;;;;;1.52;1.17;;;19.50;67.60;;;;;;5051562;28;20049;-29
2023/12/12 07:00:51;;;;;;;1.40;1.00;;;20.40;48.80;;;;;;5051549;28;20048;-27
2023/12/12 07:03:19;;;;;;;1.50;1.10;;;19.10;65.10;;;;;;5051563;28;20041;-27
2023/12/12 07:05:46;;;;;;;1.23;1.00;;;;;;;;;;5051490;28;20081;-28
2023/12/12 07:08:13;;;;;;;1.25;1.05;;;;;;;;;;5051560;28;20045;-32
2023/12/12 07:10:41;;;;;;;1.10;1.00;;;19.70;67.60;;;;;;5051442;28;20052;-29
2023/12/12 07:13:08;;;;;;;1.70;1.20;;;19.50;67.60;;;;;;5051661;28;20052;-31
2023/12/12 07:15:36;;;;;;;1.63;1.20;;;19.90;47.40;;;;;;5067642;28;20663;-29
2023/12/12 07:18:03;;;;;;;1.65;1.27;;;19.00;67.60;;;;;;5057975;28;20107;-31
2023/12/12 07:20:30;;;;;;;1.92;1.20;;;20.00;67.80;;;;;;5064004;28;20044;-28
2023/12/12 07:22:57;;;;;;;1.25;1.08;;;;;;;;;;5066122;28;20051;-30
2023/12/12 07:25:24;;;;;;;1.60;1.10;;;19.70;67.60;;;;;;5055969;28;20053;-31
2023/12/12 07:27:51;;;;;;;1.55;1.00;;;19.40;49.70;;;;;;5057263;28;20125;-28
2023/12/12 07:30:18;;;;;;;1.13;1.00;;;18.70;67.30;;;;;;5056994;28;20457;-29
2023/12/12 07:32:46;;;;;;;1.70;1.40;;;19.60;47.30;;;;;;5055236;28;20548;-27
2023/12/12 07:35:13;;;;;;;1.38;1.10;;;;;;;;;;5055615;28;20044;-30
2023/12/12 07:37:40;;;;;;;1.30;1.20;;;19.70;67.60;;;;;;5069105;28;20048;-30
2023/12/12 07:40:08;;;;;;;1.30;1.08;;;19.90;47.40;;;;;;5061879;28;20041;-27
2023/12/12 07:42:35;;;;;;;1.88;1.25;;;;;;;;;;5055060;28;20505;-27
2023/12/12 07:45:03;;;;;;;1.52;1.20;;;19.50;67.40;;;;;;5055249;28;20084;-31
2023/12/12 07:47:30;;;;;;;1.75;1.10;;;19.80;55.30;;;;;;5057754;28;20041;-29
2023/12/12 07:49:59;;;;;;;2.17;1.20;;;20.00;49.00;;;;;;5075150;28;20102;-27
2023/12/12 07:52:26;;;;;;;2.10;1.25;;;19.80;67.50;;;;;;5075290;28;20052;-31
2023/12/12 07:54:53;;;;;;;2.08;1.20;;;;;;;;;;5075151;28;20048;-27
2023/12/12 07:57:20;;;;;;;1.92;1.42;;;18.90;67.40;;;;;;5073625;28;20861;-24
2023/12/12 07:59:47;;;;;;;2.72;1.38;;;;;;;;;;5054806;28;20049;-26
2023/12/12 08:02:14;;;;;;;1.85;1.33;;;19.90;67.60;;;;;;5062374;28;20560;-24
2023/12/12 08:04:41;;;;;;;2.03;1.30;;;;;;;;;;5068428;28;20056;-26
2023/12/12 08:07:10;;;;;;;1.98;1.30;;;21.00;68.20;;;;;;5057480;28;20045;-31
2023/12/12 08:09:37;;;;;;;1.98;1.30;;;;;;;;;;5054972;28;20052;-29
2023/12/12 08:12:04;;;;;;;2.05;1.33;;;19.90;53.90;;;;;;5054635;28;20077;-25
2023/12/12 08:14:31;;;;;;;2.25;1.67;;;20.70;68.50;;;;;;5054509;28;20114;-24
2023/12/12 08:16:58;;;;;;;2.20;1.50;;;20.30;54.90;;;;;;5054406;28;20072;-27
2023/12/12 08:19:25;;;;;;;2.20;1.45;;;20.50;68.00;;;;;;5054504;28;20053;-29
2023/12/12 08:21:52;;;;;;;2.03;1.40;;;20.70;68.10;;;;;;5054355;28;20524;-31
2023/12/12 08:24:20;;;;;;;1.75;1.40;;;20.20;67.70;;;;;;5054548;28;20461;-24
2023/12/12 08:26:47;;;;;;;2.28;1.50;;;19.90;67.60;;;;;;5053755;28;20064;-24
2023/12/12 08:29:15;;;;;;;2.65;1.52;;;;;;;;;;5053844;28;20106;-27
2023/12/12 08:31:42;;;;;;;3.25;1.65;;;20.10;68.10;;;;;;5053421;28;20102;-24
2023/12/12 08:34:09;;;;;;;2.60;1.75;;;21.10;57.60;;;;;;5054069;28;20090;-24
2023/12/12 08:36:35;;;;;;;2.83;1.67;;;20.30;68.10;;;;;;5053504;28;20106;-25
2023/12/12 08:39:03;;;;;;;2.08;1.42;;;;;;;;;;5061997;28;20052;-26
2023/12/12 08:41:31;;;;;;;2.13;1.60;;;20.30;67.70;;;;;;5053004;28;20103;-25
2023/12/12 08:43:59;;;;;;;3.30;2.00;;;;;;;;;;5052368;28;20041;-26
2023/12/12 08:46:26;;;;;;;3.33;1.75;;;20.20;67.80;;;;;;5053999;28;20048;-26
2023/12/12 08:48:55;;;;;;;2.17;1.50;;;20.60;67.50;;;;;;5054088;28;20049;-28
2023/12/12 08:51:22;;;;;;;3.42;1.40;;;20.60;67.80;;;;;;5052666;28;20065;-27
2023/12/12 08:53:49;;;;;;;2.17;1.50;;;;;;;;;;5063512;28;20045;-25
2023/12/12 08:56:16;;;;;;;2.15;1.63;;;20.80;56.00;;;;;;5066486;28;20129;-26
2023/12/12 08:58:46;;;;;;;2.40;1.60;;;20.60;57.80;;;;;;5061156;28;20508;-29
2023/12/12 09:01:12;;;;;;;2.20;1.63;;;21.20;68.20;;;;;;5059693;28;20048;-29
2023/12/12 09:03:39;;;;;;;2.35;1.60;;;20.40;48.30;;;;;;5059810;28;20098;-26
2023/12/12 09:06:07;;;;;;;2.10;1.50;;;20.30;67.60;;;;;;5063454;28;20571;-26
2023/12/12 09:08:34;;;;;;;1.70;1.40;;;21.50;65.40;;;;;;5061810;28;20045;-27
2023/12/12 09:11:01;;;;;;;2.00;1.70;;;20.70;67.70;;;;;;5064078;28;20052;-27
2023/12/12 09:13:28;;;;;;;2.53;1.75;;;;;;;;;;5062195;28;20106;-26
2023/12/12 09:15:56;;;;;;;2.53;1.60;;;21.50;67.60;;;;;;5053017;28;20052;-31
2023/12/12 09:18:23;;;;;;;3.38;1.70;;;20.40;67.30;;;;;;5052904;28;20049;-30
2023/12/12 09:20:50;;;;;;;1.98;1.50;;;;;;;;;;5053575;28;20045;-27
2023/12/12 09:23:17;;;;;;;2.90;1.85;;;21.40;67.50;;;;;;5053779;28;20064;-31
2023/12/12 09:25:45;;;;;;;2.25;1.80;;;21.10;48.20;;;;;;5061356;28;20048;-29
2023/12/12 09:28:12;;;;;;;1.92;1.60;;;20.50;54.00;;;;;;5061765;28;20049;-31
2023/12/12 09:30:39;;;;;;;1.73;1.50;;;20.70;67.40;;;;;;5061506;28;20045;-29
2023/12/12 09:33:07;;;;;;;2.20;1.55;;;20.90;67.50;;;;;;5064787;28;20065;-33
2023/12/12 09:35:36;;;;;;;2.67;1.60;;;20.90;47.40;;;;;;5060538;28;20071;-27
2023/12/12 09:38:03;;;;;;;1.92;1.65;;;20.10;59.80;;;;;;5059627;28;20048;-30
2023/12/12 09:40:30;;;;;;;2.50;1.70;;;20.70;67.00;;;;;;5062132;28;20044;-31
2023/12/12 09:42:57;;;;;;;2.70;1.70;;;21.20;58.70;;;;;;5061904;28;20049;-29
2023/12/12 09:45:25;;;;;;;2.10;1.55;;;;;;;;;;5061569;28;20044;-32
2023/12/12 09:47:52;;;;;;;1.98;1.67;;;;;;;;;;5062358;28;20044;-30
2023/12/12 09:50:20;;;;;;;2.25;1.70;;;20.70;50.00;;;;;;5062789;28;20044;-28
2023/12/12 09:52:47;;;;;;;1.85;1.60;;;21.00;57.50;;;;;;5052182;28;20510;-31
2023/12/12 09:55:14;;;;;;;2.25;1.63;;;21.40;68.20;;;;;;5052943;28;20094;-31
2023/12/12 09:57:41;;;;;;;1.90;1.48;;;21.10;47.60;;;;;;5052071;28;20045;-28
2023/12/12 10:00:09;;;;;;;1.83;1.58;;;21.40;67.60;;;;;;5051922;28;20045;-30
2023/12/12 10:02:36;;;;;;;3.08;1.50;;;21.20;47.60;;;;;;5051804;28;20076;-30
2023/12/12 10:05:04;;;;;;;2.58;1.60;;;21.70;57.10;;;;;;5052339;28;20114;-28
2023/12/12 10:07:33;;;;;;;2.33;1.70;;;21.20;50.60;;;;;;5052204;28;20065;-28
2023/12/12 10:10:04;;;;;;;2.17;1.75;;;21.20;67.60;;;;;;5052158;28;20053;-27
2023/12/12 10:12:30;;;;;;;9.07;1.80;;;21.10;67.30;;;;;;5061581;28;20044;-27
2023/12/12 10:14:58;;;;;;;5.85;1.58;;;;;;;;;;5061444;28;20052;-26
2023/12/12 10:17:26;;;;;;;4.80;1.73;;;21.30;48.60;;;;;;5060847;28;20040;-24
2023/12/12 10:19:58;;;;;;;2.42;1.63;;;21.30;47.60;;;;;;5061709;28;20511;-27
2023/12/12 10:22:25;;;;;;;2.63;1.55;;;;;;;;;;5060778;28;20103;-24
2023/12/12 10:24:54;;;;;;;3.33;1.50;;;21.30;47.60;;;;;;5061822;28;20494;-25
2023/12/12 10:27:21;;;;;;;3.42;1.70;;;21.20;67.00;;;;;;5060645;28;20115;-25
2023/12/12 10:29:48;;;;;;;2.17;1.50;;;22.20;48.40;;;;;;5061808;28;20438;-25
2023/12/12 10:32:15;;;;;;;2.83;1.60;;;22.40;67.70;;;;;;5066441;28;20109;-25
2023/12/12 10:34:46;;;;;;;2.80;1.30;;;21.20;52.80;;;;;;5072180;28;20475;-27
2023/12/12 10:37:13;;;;;;;5.15;1.38;;;;;;;;;;5070921;28;20125;-27
2023/12/12 10:39:43;;;;;;;3.25;1.27;;;;;;;;;;5064068;28;20045;-27
2023/12/12 10:42:11;;;;;;;2.30;1.65;;;21.40;47.60;;;;;;5064212;28;20044;-26
2023/12/12 10:44:38;;;;;;;4.82;1.60;;;;;;;;;;5051988;28;20502;-28
2023/12/12 10:47:06;;;;;;;2.13;1.25;;;21.20;66.80;;;;;;5051427;28;20498;-25
2023/12/12 10:49:33;;;;;;;1.88;1.27;;;21.50;49.80;;;;;;5052217;28;20134;-26
2023/12/12 10:52:01;;;;;;;2.08;1.50;;;21.40;66.90;;;;;;5051917;28;20102;-24
2023/12/12 10:54:28;;;;;;;3.80;1.25;;;21.70;67.40;;;;;;5050812;28;20069;-29
2023/12/12 10:56:55;;;;;;;2.88;1.50;;;22.50;57.00;;;;;;5051659;28;20095;-27
2023/12/12 10:59:23;;;;;;;2.17;1.30;;;21.80;68.10;;;;;;5051059;28;20502;-28
2023/12/12 11:01:50;;;;;;;2.10;1.35;;;21.20;67.30;;;;;;5051014;28;20457;-25
2023/12/12 11:04:17;;;;;;;4.18;1.38;;;21.60;52.10;;;;;;5051691;28;20052;-25
2023/12/12 11:06:44;;;;;;;3.17;1.60;;;20.30;66.30;;;;;;5050899;28;20505;-25
2023/12/12 11:09:11;;;;;;;2.33;1.50;;;21.60;47.80;;;;;;5051112;28;20041;-29
2023/12/12 11:11:38;;;;;;;2.13;1.20;;;22.00;66.90;;;;;;5050886;28;20498;-25
2023/12/12 11:14:05;;;;;;;2.85;1.30;;;;;;;;;;5051245;28;20044;-26
2023/12/12 11:16:33;;;;;;;2.17;1.35;;;21.80;67.20;;;;;;5063485;28;20049;-27
2023/12/12 11:19:01;;;;;;;2.45;1.30;;;22.90;67.30;;;;;;5059659;28;20044;-27
2023/12/12 11:21:44;;;;;;;2.33;1.40;;;21.50;66.90;;;;;;5059189;28;20173;-30
2023/12/12 11:24:11;;;;;;;1.85;1.45;;;21.70;67.50;;;;;;5058044;28;20154;-25
2023/12/12 11:26:38;;;;;;;2.05;1.30;;;21.50;64.90;;;;;;5062220;28;20048;-25
2023/12/12 11:29:05;;;;;;;2.38;1.20;;;22.70;67.20;;;;;;5059680;28;20041;-25
2023/12/12 11:31:35;;;;;;;2.65;1.50;;;21.80;47.40;;;;;;5059933;28;20068;-30
2023/12/12 11:34:04;;;;;;;4.30;1.50;;;21.90;66.60;;;;;;5058084;28;20045;-27
2023/12/12 11:36:51;;;;;;;2.20;1.30;;;21.30;66.30;;;;;;5059320;28;20087;-26
2023/12/12 11:39:30;;;;;;;1.75;1.33;;;21.70;47.30;;;;;;5049965;28;20041;-25
2023/12/12 11:41:58;;;;;;;3.25;1.50;;;21.70;47.30;;;;;;5050990;28;20045;-29
2023/12/12 11:44:25;;;;;;;2.40;1.60;;;21.50;66.40;;;;;;5051175;28;20505;-29
2023/12/12 11:46:54;;;;;;;3.13;1.30;;;22.00;66.70;;;;;;5051373;28;20049;-29
2023/12/12 11:49:22;;;;;;;2.70;1.65;;;21.40;66.50;;;;;;5051001;28;20049;-25
2023/12/12 11:51:50;;;;;;;1.50;1.40;;;;;;;;;;5050615;28;20052;-26
2023/12/12 11:54:20;;;;;;;2.40;1.80;;;20.50;65.80;;;;;;5050417;28;20128;-25
2023/12/12 11:56:47;;;;;;;3.80;1.85;;;;;;;;;;5049813;28;20095;-28
2023/12/12 11:59:14;;;;;;;5.85;1.80;;;;;;;;;;5048429;28;20053;-30
2023/12/12 12:01:41;;;;;;;2.53;1.80;;;;;;;;;;5048219;28;20482;-26
2023/12/12 12:04:09;;;;;;;2.95;1.75;;;20.50;46.90;;;;;;5048771;28;20487;-29
2023/12/12 12:06:36;;;;;;;3.22;2.15;;;;;;;;;;5050603;28;20052;-26
2023/12/12 12:09:05;;;;;;;5.30;2.00;;;21.40;67.40;;;;;;5052839;28;20291;-27
2023/12/12 12:11:37;;;;;;;4.07;1.73;;;21.40;67.40;;;;;;5053359;28;20048;-29
2023/12/12 12:14:04;;;;;;;3.65;1.80;;;21.40;66.60;;;;;;5054887;28;20091;-27
2023/12/12 12:16:30;;;;;;;3.75;1.88;;;21.10;66.90;;;;;;5054638;28;20057;-24
2023/12/12 12:18:57;;;;;;;3.20;2.00;;;21.20;60.10;;;;;;5054335;28;20114;-29
2023/12/12 12:21:26;;;;;;;2.95;2.03;;;21.00;66.50;;;;;;5054473;28;20494;-30
2023/12/12 12:23:53;;;;;;;1.98;1.65;;;21.10;66.70;;;;;;5054583;28;20098;-24
2023/12/12 12:26:20;;;;;;;3.40;2.25;;;21.00;67.00;;;;;;5054591;28;20402;-29
2023/12/12 12:28:47;;;;;;;2.70;1.95;;;;;;;;;;5054463;28;20567;-25
2023/12/12 12:31:14;;;;;;;2.88;2.00;;;21.00;66.90;;;;;;5054160;28;20485;-25
2023/12/12 12:33:41;;;;;;;3.47;2.05;;;;;;;;;;5054444;28;20544;-31
2023/12/12 12:36:08;;;;;;;3.50;2.10;;;21.00;47.40;;;;;;5053754;28;20395;-25
2023/12/12 12:38:37;;;;;;;2.75;2.03;;;21.00;47.50;;;;;;5054508;28;20056;-25
2023/12/12 12:41:04;;;;;;;3.10;1.92;;;;;;;;;;5054163;28;20445;-30
2023/12/12 12:43:31;;;;;;;2.95;2.00;;;21.00;67.10;;;;;;5053960;28;20049;-31
2023/12/12 12:45:58;;;;;;;2.38;2.05;;;;;;;;;;5053973;28;20107;-29
2023/12/12 12:48:26;;;;;;;4.05;2.45;;;20.90;67.50;;;;;;5054311;28;20126;-25
2023/12/12 12:50:55;;;;;;;3.03;2.15;;;20.50;67.80;;;;;;5054014;28;20127;-24
2023/12/12 12:53:22;;;;;;;2.80;2.22;;;20.80;67.10;;;;;;5073444;28;20712;-24
2023/12/12 12:55:50;;;;;;;3.33;2.50;;;21.10;62.60;;;;;;5074145;28;20052;-24
2023/12/12 12:58:17;;;;;;;3.15;2.40;;;21.20;67.40;;;;;;5073888;28;20056;-25
2023/12/12 13:00:44;;;;;;;3.53;2.40;;;20.40;67.40;;;;;;5072906;28;20131;-27
2023/12/12 13:03:11;;;;;;;3.38;2.83;;;;;;;;;;5053832;28;20106;-25
2023/12/12 13:05:38;;;;;;;3.65;2.75;;;20.20;67.90;;;;;;5060303;28;20063;-29
2023/12/12 13:08:05;;;;;;;3.88;2.67;;;21.60;67.80;;;;;;5073599;28;20055;-32
2023/12/12 13:10:33;;;;;;;4.07;2.50;;;20.80;66.60;;;;;;5073774;28;20049;-27
2023/12/12 13:13:01;;;;;;;3.60;2.88;;;20.30;67.70;;;;;;5073466;28;20048;-30